createdAt,value
2018-10-19T00:00:25.196Z,12.27
2018-10-19T00:02:55.559Z,12.28
2018-10-19T00:05:25.288Z,12.27
2018-10-19T00:07:54.941Z,12.21
2018-10-19T00:10:24.587Z,12.23
2018-10-19T00:12:54.346Z,12.13
2018-10-19T00:15:23.968Z,12.03
2018-10-19T00:17:53.611Z,12.01
2018-10-19T00:20:23.336Z,11.97
2018-10-19T00:22:52.984Z,11.96
2018-10-19T00:25:22.640Z,11.89
2018-10-19T00:27:52.335Z,11.94
2018-10-19T00:30:22.004Z,11.92
2018-10-19T00:32:51.649Z,11.93
2018-10-19T00:35:21.428Z,11.85
2018-10-19T00:37:51.089Z,11.87
2018-10-19T00:40:20.741Z,11.84
2018-10-19T00:42:50.481Z,11.89
2018-10-19T00:45:24.457Z,11.92
2018-10-19T00:47:54.159Z,11.92
2018-10-19T00:50:23.800Z,11.84
2018-10-19T00:52:53.451Z,11.90
2018-10-19T00:55:23.220Z,11.87
2018-10-19T00:57:52.868Z,11.90
2018-10-19T01:00:22.525Z,11.95
2018-10-19T01:02:52.251Z,11.84
2018-10-19T01:05:22.160Z,11.89
2018-10-19T01:07:51.832Z,11.86
2018-10-19T01:10:23.515Z,11.83
2018-10-19T01:12:56.407Z,11.81
2018-10-19T01:15:27.429Z,11.76
2018-10-19T01:17:57.485Z,11.69
2018-10-19T01:20:27.216Z,11.67
2018-10-19T01:22:56.969Z,11.65
2018-10-19T01:25:26.608Z,11.61
2018-10-19T01:27:56.332Z,11.63
2018-10-19T01:30:25.996Z,11.62
2018-10-19T01:32:55.658Z,11.57
2018-10-19T01:35:25.379Z,11.51
2018-10-19T01:37:55.028Z,11.52
2018-10-19T01:40:24.668Z,11.43
2018-10-19T01:42:54.375Z,11.36
2018-10-19T01:45:24.041Z,11.34
2018-10-19T01:47:53.692Z,11.37
2018-10-19T01:50:23.372Z,11.40
2018-10-19T01:52:53.076Z,11.40
2018-10-19T01:55:22.720Z,11.43
2018-10-19T01:57:52.460Z,11.38
2018-10-19T02:00:22.168Z,11.34
2018-10-19T02:02:52.286Z,11.38
2018-10-19T02:05:21.976Z,11.36
2018-10-19T02:07:51.644Z,11.31
2018-10-19T02:10:21.328Z,11.32
2018-10-19T02:12:50.988Z,11.29
2018-10-19T02:15:20.698Z,11.25
2018-10-19T02:17:50.341Z,11.14
2018-10-19T02:20:20.024Z,11.05
2018-10-19T02:22:49.696Z,11.13
2018-10-19T02:25:19.389Z,11.12
2018-10-19T02:27:49.136Z,11.14
2018-10-19T02:30:18.923Z,11.11
2018-10-19T02:32:48.577Z,11.05
2018-10-19T02:35:18.341Z,11.01
2018-10-19T02:37:48.120Z,10.96
2018-10-19T02:40:17.828Z,10.98
2018-10-19T02:42:47.469Z,10.93
2018-10-19T02:45:17.256Z,10.95
2018-10-19T02:47:46.828Z,10.95
2018-10-19T02:50:16.537Z,10.91
2018-10-19T02:52:46.224Z,10.89
2018-10-19T02:55:15.909Z,10.86
2018-10-19T02:57:45.595Z,10.81
2018-10-19T03:00:15.276Z,10.78
2018-10-19T03:02:44.977Z,10.73
2018-10-19T03:05:14.756Z,10.72
2018-10-19T03:07:44.336Z,10.67
2018-10-19T03:10:14.030Z,10.63
2018-10-19T03:12:43.692Z,10.63
2018-10-19T03:15:13.440Z,10.61
2018-10-19T03:17:43.360Z,10.58
2018-10-19T03:20:13.041Z,10.45
2018-10-19T03:22:42.723Z,10.43
2018-10-19T03:25:12.417Z,10.44
2018-10-19T03:27:42.110Z,10.42
2018-10-19T03:30:11.822Z,10.41
2018-10-19T03:32:41.485Z,10.41
2018-10-19T03:35:11.186Z,10.36
2018-10-19T03:37:40.843Z,10.32
2018-10-19T03:40:10.529Z,10.24
2018-10-19T03:42:40.192Z,10.28
2018-10-19T03:45:09.952Z,10.24
2018-10-19T03:47:39.620Z,10.24
2018-10-19T03:50:09.362Z,10.15
2018-10-19T03:52:39.089Z,10.11
2018-10-19T03:55:08.840Z,10.07
2018-10-19T03:57:38.516Z,9.94
2018-10-19T04:00:08.248Z,10.00
2018-10-19T04:02:37.896Z,9.86
2018-10-19T04:05:07.696Z,9.90
2018-10-19T04:07:37.331Z,9.94
2018-10-19T04:10:07.629Z,9.97
2018-10-19T04:12:37.294Z,9.95
2018-10-19T04:15:08.045Z,9.91
2018-10-19T04:17:37.750Z,9.86
2018-10-19T04:20:07.539Z,9.87
2018-10-19T04:22:37.201Z,9.83
2018-10-19T04:25:06.996Z,9.82
2018-10-19T04:27:36.751Z,9.75
2018-10-19T04:30:07.456Z,9.83
2018-10-19T04:32:37.221Z,9.86
2018-10-19T04:35:07.193Z,9.81
2018-10-19T04:37:36.845Z,9.81
2018-10-19T04:40:11.232Z,9.83
2018-10-19T04:42:40.892Z,9.77
2018-10-19T04:45:10.650Z,9.79
2018-10-19T04:47:40.324Z,9.79
2018-10-19T04:50:10.295Z,9.73
2018-10-19T04:52:39.977Z,9.69
2018-10-19T04:55:12.992Z,9.58
2018-10-19T04:57:42.660Z,9.62
2018-10-19T05:00:12.498Z,9.68
2018-10-19T05:02:42.228Z,9.61
2018-10-19T05:05:12.038Z,9.62
2018-10-19T05:07:41.666Z,9.68
2018-10-19T05:10:11.694Z,9.75
2018-10-19T05:12:41.392Z,9.66
2018-10-19T05:15:12.136Z,9.55
2018-10-19T05:17:41.816Z,9.48
2018-10-19T05:20:12.713Z,9.30
2018-10-19T05:22:42.311Z,9.44
2018-10-19T05:25:13.046Z,9.55
2018-10-19T05:27:42.726Z,9.63
2018-10-19T05:30:13.393Z,9.71
2018-10-19T05:32:43.514Z,9.78
2018-10-19T05:35:13.271Z,9.79
2018-10-19T05:37:42.904Z,9.75
2018-10-19T05:40:12.644Z,9.68
2018-10-19T05:42:42.294Z,9.68
2018-10-19T05:45:13.198Z,9.71
2018-10-19T05:47:42.861Z,9.62
2018-10-19T05:50:13.079Z,9.38
2018-10-19T05:52:42.747Z,9.30
2018-10-19T05:55:12.420Z,9.28
2018-10-19T05:57:42.072Z,9.24
2018-10-19T06:00:12.639Z,9.31
2018-10-19T06:02:42.378Z,9.23
2018-10-19T06:05:12.077Z,9.21
2018-10-19T06:07:41.727Z,9.18
2018-10-19T06:10:11.472Z,9.12
2018-10-19T06:12:41.116Z,9.36
2018-10-19T06:15:10.840Z,9.35
2018-10-19T06:17:40.630Z,9.37
2018-10-19T06:20:10.407Z,9.19
2018-10-19T06:22:40.006Z,9.16
2018-10-19T06:25:09.697Z,9.20
2018-10-19T06:27:39.361Z,9.15
2018-10-19T06:30:09.288Z,9.18
2018-10-19T06:32:39.271Z,9.12
2018-10-19T06:35:09.080Z,8.91
2018-10-19T06:37:38.680Z,8.78
2018-10-19T06:40:08.398Z,8.71
2018-10-19T06:42:38.056Z,8.83
2018-10-19T06:45:08.066Z,8.87
2018-10-19T06:47:37.723Z,8.96
2018-10-19T06:50:09.718Z,8.93
2018-10-19T06:52:39.744Z,8.94
2018-10-19T06:55:10.968Z,8.73
2018-10-19T06:57:40.619Z,8.67
2018-10-19T07:00:10.344Z,8.58
2018-10-19T07:02:39.978Z,8.51
2018-10-19T07:05:09.730Z,8.56
2018-10-19T07:07:39.416Z,8.56
2018-10-19T07:10:10.068Z,8.67
2018-10-19T07:12:40.327Z,8.91
2018-10-19T07:15:10.825Z,9.02
2018-10-19T07:17:40.502Z,9.07
2018-10-19T07:20:11.466Z,9.19
2018-10-19T07:22:41.165Z,9.24
2018-10-19T07:25:10.842Z,9.10
2018-10-19T07:27:40.492Z,9.18
2018-10-19T07:30:10.313Z,9.43
2018-10-19T07:32:39.960Z,9.46
2018-10-19T07:35:09.710Z,9.68
2018-10-19T07:37:39.349Z,9.67
2018-10-19T07:40:09.020Z,9.74
2018-10-19T07:42:38.662Z,9.82
2018-10-19T07:45:08.373Z,9.88
2018-10-19T07:47:38.122Z,9.97
2018-10-19T07:50:08.552Z,10.16
2018-10-19T07:52:39.108Z,10.06
2018-10-19T07:55:10.080Z,10.26
2018-10-19T07:57:39.754Z,10.26
2018-10-19T08:00:10.579Z,10.40
2018-10-19T08:02:40.288Z,10.54
2018-10-19T08:05:10.610Z,10.70
2018-10-19T08:07:40.308Z,10.84
2018-10-19T08:10:10.781Z,10.92
2018-10-19T08:12:40.547Z,11.02
2018-10-19T08:15:10.535Z,11.07
2018-10-19T08:17:40.504Z,11.18
2018-10-19T08:20:10.713Z,11.22
2018-10-19T08:22:40.560Z,11.25
2018-10-19T08:25:10.276Z,11.30
2018-10-19T08:27:39.958Z,11.42
2018-10-19T08:30:09.717Z,11.58
2018-10-19T08:32:39.405Z,11.79
2018-10-19T08:35:09.212Z,11.77
2018-10-19T08:37:38.885Z,11.93
2018-10-19T08:40:08.609Z,12.09
2018-10-19T08:42:38.280Z,12.21
2018-10-19T08:45:08.289Z,12.33
2018-10-19T08:47:38.059Z,12.44
2018-10-19T08:50:08.314Z,12.44
2018-10-19T08:52:37.988Z,12.54
2018-10-19T08:55:07.742Z,12.57
2018-10-19T08:57:37.452Z,12.68
2018-10-19T09:00:09.321Z,12.77
2018-10-19T09:02:38.977Z,12.84
2018-10-19T09:05:08.800Z,12.97
2018-10-19T09:07:38.696Z,13.15
2018-10-19T09:10:08.848Z,13.38
2018-10-19T09:12:38.831Z,13.41
2018-10-19T09:15:08.576Z,13.46
2018-10-19T09:17:38.215Z,13.57
2018-10-19T09:20:08.114Z,13.54
2018-10-19T09:22:37.776Z,13.65
2018-10-19T09:25:07.580Z,13.63
2018-10-19T09:27:37.240Z,13.72
2018-10-19T09:30:07.760Z,13.70
2018-10-19T09:32:37.416Z,13.85
2018-10-19T09:35:07.221Z,14.04
2018-10-19T09:37:36.890Z,14.10
2018-10-19T09:40:06.833Z,14.04
2018-10-19T09:42:36.517Z,13.94
2018-10-19T09:45:07.282Z,14.14
2018-10-19T09:47:37.075Z,14.28
2018-10-19T09:50:07.540Z,14.25
2018-10-19T09:52:37.231Z,14.32
2018-10-19T09:55:08.337Z,14.48
2018-10-19T09:57:38.172Z,14.61
2018-10-19T10:00:15.468Z,14.67
2018-10-19T10:02:45.132Z,14.78
2018-10-19T10:05:14.893Z,14.78
2018-10-19T10:07:44.546Z,14.67
2018-10-19T10:10:14.232Z,14.67
2018-10-19T10:12:43.896Z,14.73
2018-10-19T10:15:13.742Z,14.63
2018-10-19T10:17:43.276Z,14.66
2018-10-19T10:20:12.952Z,14.74
2018-10-19T10:22:42.626Z,14.74
2018-10-19T10:25:12.356Z,14.63
2018-10-19T10:27:42.091Z,14.83
2018-10-19T10:30:12.598Z,14.85
2018-10-19T10:32:42.289Z,14.91
2018-10-19T10:35:12.105Z,15.07
2018-10-19T10:37:41.788Z,15.17
2018-10-19T10:40:11.459Z,15.43
2018-10-19T10:42:41.160Z,15.44
2018-10-19T10:45:10.836Z,15.58
2018-10-19T10:47:40.669Z,15.62
2018-10-19T10:50:10.392Z,15.73
2018-10-19T10:52:40.097Z,15.78
2018-10-19T10:55:09.827Z,15.76
2018-10-19T10:57:39.832Z,15.84
2018-10-19T11:00:09.557Z,15.81
2018-10-19T11:02:39.248Z,15.90
2018-10-19T11:05:08.936Z,15.90
2018-10-19T11:07:38.718Z,15.96
2018-10-19T11:10:09.250Z,16.05
2018-10-19T11:12:38.942Z,16.16
2018-10-19T11:15:09.324Z,16.24
2018-10-19T11:17:39.048Z,16.32
2018-10-19T11:20:08.868Z,16.21
2018-10-19T11:22:38.548Z,16.30
2018-10-19T11:25:08.443Z,16.54
2018-10-19T11:27:38.189Z,16.54
2018-10-19T11:30:08.976Z,16.61
2018-10-19T11:32:38.680Z,16.57
2018-10-19T11:35:08.685Z,16.64
2018-10-19T11:37:38.404Z,16.64
2018-10-19T11:40:29.952Z,16.80
2018-10-19T11:42:59.661Z,16.71
2018-10-19T11:45:30.785Z,16.75
2018-10-19T11:48:00.541Z,16.69
2018-10-19T11:50:30.314Z,16.80
2018-10-19T11:53:00.017Z,16.75
2018-10-19T11:55:29.733Z,16.56
2018-10-19T11:57:59.441Z,16.50
2018-10-19T12:00:29.152Z,16.58
2018-10-19T12:02:58.873Z,16.64
2018-10-19T12:05:28.563Z,16.71
2018-10-19T12:07:58.269Z,16.79
2018-10-19T12:10:27.948Z,16.78
2018-10-19T12:12:57.690Z,16.74
2018-10-19T12:15:27.327Z,16.79
2018-10-19T12:17:57.021Z,16.89
2018-10-19T12:20:26.671Z,16.98
2018-10-19T12:22:56.357Z,17.06
2018-10-19T12:25:26.013Z,17.22
2018-10-19T12:27:55.684Z,17.25
2018-10-19T12:30:25.399Z,17.29
2018-10-19T12:32:55.111Z,17.34
2018-10-19T12:35:24.863Z,17.38
2018-10-19T12:37:54.561Z,17.48
2018-10-19T12:40:24.234Z,17.48
2018-10-19T12:42:53.991Z,17.35
2018-10-19T12:46:39.428Z,17.39
2018-10-19T12:49:09.686Z,17.39
2018-10-19T12:51:39.576Z,17.47
2018-10-19T12:54:09.696Z,17.46
2018-10-19T12:56:39.412Z,17.33
2018-10-19T12:59:09.173Z,17.59
2018-10-19T13:01:38.940Z,17.56
2018-10-19T13:04:08.625Z,17.63
2018-10-19T13:06:38.361Z,17.72
2018-10-19T13:09:11.475Z,17.66
2018-10-19T13:11:41.124Z,17.68
2018-10-19T13:14:11.097Z,17.59
2018-10-19T13:16:40.766Z,17.32
2018-10-19T13:19:10.526Z,17.29
2018-10-19T13:21:40.436Z,17.23
2018-10-19T13:24:10.173Z,16.91
2018-10-19T13:26:39.859Z,16.83
2018-10-19T13:29:09.568Z,16.86
2018-10-19T13:31:39.245Z,17.00
2018-10-19T13:34:08.995Z,17.22
2018-10-19T13:36:38.638Z,17.29
2018-10-19T13:39:10.314Z,17.51
2018-10-19T13:41:40.451Z,17.71
2018-10-19T13:44:10.448Z,17.84
2018-10-19T13:46:40.135Z,17.96
2018-10-19T13:49:09.819Z,17.82
2018-10-19T13:51:39.688Z,17.78
2018-10-19T13:54:09.379Z,17.91
2018-10-19T13:56:39.282Z,18.02
2018-10-19T13:59:09.021Z,18.13
2018-10-19T14:01:38.668Z,18.22
2018-10-19T14:04:08.416Z,18.33
2018-10-19T14:06:38.101Z,18.46
2018-10-19T14:09:09.430Z,18.55
2018-10-19T14:11:39.833Z,18.68
2018-10-19T14:14:09.564Z,18.75
2018-10-19T14:16:39.306Z,18.83
2018-10-19T14:19:09.013Z,18.95
2018-10-19T14:21:38.778Z,18.92
2018-10-19T14:24:08.469Z,18.93
2018-10-19T14:26:38.241Z,18.91
2018-10-19T14:29:07.939Z,18.78
2018-10-19T14:31:37.613Z,18.67
2018-10-19T14:34:07.734Z,18.66
2018-10-19T14:36:37.427Z,18.59
2018-10-19T14:39:07.751Z,18.60
2018-10-19T14:41:37.652Z,18.57
2018-10-19T14:44:07.315Z,18.48
2018-10-19T14:46:36.997Z,18.40
2018-10-19T14:49:06.744Z,18.37
2018-10-19T14:51:36.432Z,18.33
2018-10-19T14:54:06.234Z,18.27
2018-10-19T14:56:35.902Z,18.20
2018-10-19T14:59:06.282Z,18.10
2018-10-19T15:01:35.942Z,17.82
2018-10-19T15:04:07.210Z,17.68
2018-10-19T15:06:37.267Z,17.37
2018-10-19T15:09:10.057Z,17.25
2018-10-19T15:11:40.364Z,17.10
2018-10-19T15:14:10.053Z,16.85
2018-10-19T15:16:40.123Z,16.80
2018-10-19T15:19:09.808Z,16.75
2018-10-19T15:21:39.551Z,16.63
2018-10-19T15:24:09.273Z,16.56
2018-10-19T15:26:38.953Z,16.44
2018-10-19T15:29:08.802Z,16.37
2018-10-19T15:31:38.453Z,16.28
2018-10-19T15:34:08.208Z,16.18
2018-10-19T15:36:37.956Z,16.06
2018-10-19T15:39:10.735Z,15.98
2018-10-19T15:41:40.875Z,15.93
2018-10-19T15:44:10.826Z,15.77
2018-10-19T15:46:40.620Z,15.77
2018-10-19T15:49:10.292Z,15.70
2018-10-19T15:51:39.958Z,15.64
2018-10-19T15:54:09.745Z,15.51
2018-10-19T15:56:39.419Z,15.47
2018-10-19T15:59:09.076Z,15.42
2018-10-19T16:01:38.752Z,15.36
2018-10-19T16:04:08.521Z,15.28
2018-10-19T16:06:38.222Z,15.21
2018-10-19T16:09:11.345Z,15.11
2018-10-19T16:11:40.915Z,15.09
2018-10-19T16:14:10.613Z,15.00
2018-10-19T16:16:40.356Z,14.97
2018-10-19T16:19:10.210Z,14.92
2018-10-19T16:21:39.889Z,14.85
2018-10-19T16:24:09.773Z,14.75
2018-10-19T16:26:39.449Z,14.67
2018-10-19T16:29:09.385Z,14.63
2018-10-19T16:31:39.197Z,14.59
2018-10-19T16:34:08.891Z,14.57
2018-10-19T16:36:38.592Z,14.46
2018-10-19T16:39:09.428Z,14.38
2018-10-19T16:41:39.221Z,14.27
2018-10-19T16:44:08.888Z,14.17
2018-10-19T16:46:38.572Z,14.06
2018-10-19T16:49:08.298Z,14.04
2018-10-19T16:51:38.028Z,14.00
2018-10-19T16:54:07.914Z,13.91
2018-10-19T16:56:37.520Z,13.92
2018-10-19T16:59:07.220Z,13.86
2018-10-19T17:01:36.917Z,13.82
2018-10-19T17:04:06.995Z,13.71
2018-10-19T17:06:36.654Z,13.73
2018-10-19T17:09:11.290Z,13.73
2018-10-19T17:11:41.271Z,13.71
2018-10-19T17:14:11.451Z,13.67
2018-10-19T17:16:41.148Z,13.64
2018-10-19T17:19:10.967Z,13.62
2018-10-19T17:21:40.724Z,13.59
2018-10-19T17:24:10.391Z,13.57
2018-10-19T17:26:40.168Z,13.58
2018-10-19T17:29:09.895Z,13.44
2018-10-19T17:31:39.600Z,13.43
2018-10-19T17:34:09.334Z,13.32
2018-10-19T17:36:39.013Z,13.32
2018-10-19T17:39:10.462Z,13.46
2018-10-19T17:41:40.116Z,13.42
2018-10-19T17:44:09.852Z,13.32
2018-10-19T17:46:39.560Z,13.29
2018-10-19T17:49:09.340Z,13.24
2018-10-19T17:51:38.972Z,13.22
2018-10-19T17:54:08.782Z,13.14
2018-10-19T17:56:38.397Z,13.10
2018-10-19T17:59:08.199Z,13.12
2018-10-19T18:01:37.864Z,12.97
2018-10-19T18:04:07.556Z,12.89
2018-10-19T18:06:37.270Z,12.88
2018-10-19T18:09:10.080Z,12.74
2018-10-19T18:11:39.821Z,12.72
2018-10-19T18:14:09.731Z,12.75
2018-10-19T18:16:39.439Z,12.86
2018-10-19T18:19:09.226Z,12.80
2018-10-19T18:21:39.308Z,12.67
2018-10-19T18:24:08.969Z,12.69
2018-10-19T18:26:38.704Z,12.71
2018-10-19T18:29:08.479Z,12.67
2018-10-19T18:31:38.105Z,12.60
2018-10-19T18:34:07.824Z,12.72
2018-10-19T18:36:37.860Z,12.46
2018-10-19T18:39:10.675Z,12.38
2018-10-19T18:41:40.435Z,12.21
2018-10-19T18:44:10.185Z,12.15
2018-10-19T18:46:39.815Z,12.13
2018-10-19T18:49:09.845Z,12.34
2018-10-19T18:51:39.502Z,12.49
2018-10-19T18:54:09.252Z,12.37
2018-10-19T18:56:38.937Z,12.46
2018-10-19T18:59:08.699Z,12.31
2018-10-19T19:01:38.388Z,12.22
2018-10-19T19:04:08.057Z,12.23
2018-10-19T19:06:37.722Z,12.28
2018-10-19T19:09:10.516Z,12.39
2018-10-19T19:11:41.156Z,12.42
2018-10-19T19:14:10.934Z,12.38
2018-10-19T19:16:40.585Z,12.31
2018-10-19T19:19:10.324Z,12.14
2018-10-19T19:21:40.107Z,12.22
2018-10-19T19:24:15.041Z,12.25
2018-10-19T19:26:44.724Z,12.14
2018-10-19T19:29:14.494Z,12.05
2018-10-19T19:31:44.385Z,12.14
2018-10-19T19:34:18.732Z,12.31
2018-10-19T19:36:48.431Z,12.27
2018-10-19T19:39:18.116Z,11.96
2018-10-19T19:41:52.963Z,11.85
2018-10-19T19:44:22.645Z,12.04
2018-10-19T19:46:52.378Z,12.12
2018-10-19T19:49:39.389Z,12.21
2018-10-19T19:52:09.118Z,12.21
2018-10-19T19:54:38.784Z,12.15
2018-10-19T19:57:08.483Z,12.11
2018-10-19T19:59:38.195Z,12.04
2018-10-19T20:02:07.983Z,12.03
2018-10-19T20:04:38.017Z,12.01
2018-10-19T20:07:07.768Z,11.98
2018-10-19T20:09:37.428Z,11.73
2018-10-19T20:12:07.187Z,11.49
2018-10-19T20:14:36.896Z,11.56
2018-10-19T20:17:06.656Z,11.61
2018-10-19T20:19:36.371Z,11.66
2018-10-19T20:22:06.375Z,11.73
2018-10-19T20:24:36.106Z,11.71
2018-10-19T20:27:05.977Z,11.67
2018-10-19T20:29:35.636Z,11.65
2018-10-19T20:32:05.405Z,11.65
2018-10-19T20:34:35.077Z,11.58
2018-10-19T20:37:04.856Z,11.59
2018-10-19T20:39:34.597Z,11.56
2018-10-19T20:42:04.283Z,11.49
2018-10-19T20:44:33.980Z,11.30
2018-10-19T20:47:03.668Z,11.17
2018-10-19T20:49:33.364Z,11.24
2018-10-19T20:52:03.032Z,11.06
2018-10-19T20:54:32.744Z,11.15
2018-10-19T20:57:02.429Z,11.15
2018-10-19T20:59:32.348Z,11.19
2018-10-19T21:02:02.069Z,11.10
2018-10-19T21:04:31.775Z,10.96
2018-10-19T21:07:01.430Z,10.87
2018-10-19T21:09:31.132Z,10.81
2018-10-19T21:12:00.809Z,10.85
2018-10-19T21:14:30.483Z,10.92
2018-10-19T21:17:00.141Z,10.99
2018-10-19T21:19:29.921Z,10.77
2018-10-19T21:21:59.626Z,10.87
2018-10-19T21:24:29.331Z,10.57
2018-10-19T21:26:58.997Z,10.35
2018-10-19T21:29:28.675Z,10.37
2018-10-19T21:31:58.365Z,10.36
2018-10-19T21:34:28.052Z,10.38
2018-10-19T21:36:57.700Z,10.37
2018-10-19T21:39:27.431Z,10.34
2018-10-19T21:41:57.100Z,10.13
2018-10-19T21:44:26.806Z,10.26
2018-10-19T21:46:56.472Z,10.33
2018-10-19T21:49:26.162Z,10.29
2018-10-19T21:51:55.816Z,10.30
2018-10-19T21:54:25.492Z,10.26
2018-10-19T21:56:55.180Z,10.34
2018-10-19T21:59:24.873Z,10.33
2018-10-19T22:01:54.568Z,10.34
2018-10-19T22:04:24.284Z,10.22
2018-10-19T22:06:53.993Z,10.16
2018-10-19T22:09:23.654Z,10.19
2018-10-19T22:11:53.352Z,10.18
2018-10-19T22:14:23.022Z,10.23
2018-10-19T22:16:52.809Z,10.27
2018-10-19T22:19:22.480Z,10.22
2018-10-19T22:21:52.171Z,10.19
2018-10-19T22:24:21.832Z,10.05
2018-10-19T22:26:51.500Z,9.98
2018-10-19T22:29:21.128Z,9.89
2018-10-19T22:31:50.804Z,9.77
2018-10-19T22:34:20.505Z,9.65
2018-10-19T22:36:50.190Z,9.55
2018-10-19T22:39:19.860Z,9.71
2018-10-19T22:41:49.536Z,9.66
2018-10-19T22:44:19.172Z,9.61
2018-10-19T22:46:48.840Z,9.72
2018-10-19T22:49:18.484Z,9.57
2018-10-19T22:51:48.140Z,9.33
2018-10-19T22:54:17.784Z,9.39
2018-10-19T22:56:47.609Z,9.50
2018-10-19T22:59:17.252Z,9.54
2018-10-19T23:01:47.012Z,9.45
2018-10-19T23:04:16.900Z,9.39
2018-10-19T23:06:46.633Z,9.49
2018-10-19T23:09:16.395Z,9.36
2018-10-19T23:11:46.056Z,9.28
2018-10-19T23:14:15.704Z,9.34
2018-10-19T23:16:45.372Z,9.37
2018-10-19T23:19:15.072Z,9.41
2018-10-19T23:21:44.780Z,9.38
2018-10-19T23:24:14.414Z,9.35
2018-10-19T23:26:44.100Z,9.29
2018-10-19T23:29:13.801Z,9.26
2018-10-19T23:31:43.744Z,9.36
2018-10-19T23:34:13.245Z,9.31
2018-10-19T23:36:42.975Z,9.13
2018-10-19T23:39:13.291Z,9.11
2018-10-19T23:41:42.975Z,9.25
2018-10-19T23:44:12.639Z,9.23
2018-10-19T23:46:42.337Z,9.22
2018-10-19T23:49:12.048Z,9.15
2018-10-19T23:51:41.680Z,9.14
2018-10-19T23:54:11.349Z,9.15
2018-10-19T23:56:41.200Z,9.08
2018-10-19T23:59:10.982Z,8.88
